KMVE/MVE METAR and TAF weather

Enter ICAO airport designator
Station Type Date Time Source
KMVE METAR 2021/07/29 19:35 UTC NOAA

KMVE 291935Z AUTO 02010KT 2 1/2SM HZ CLR 24/16 A3014 RMK AO2


Station Type Date Time Source
KMVE Decoded METAR 2021/07/29 19:35 UTC NOAA

Montevideo, Montevideo-Chippewa County Airport, MN, United States (KMVE) 44-58N 095-43W
Jul 29, 2021 - 03:35 PM EDT / 2021.07.29 1935 UTC
Wind: from the NNE (020 degrees) at 12 MPH (10 KT):0
Visibility: 2 1/2 mile(s):0
Sky conditions: clear
Weather: haze
Temperature: 75 F (24 C)
Dew Point: 60 F (16 C)
Relative Humidity: 60%
Pressure (altimeter): 30.14 in. Hg (1020 hPa)
ob: KMVE 291935Z AUTO 02010KT 2 1/2SM HZ CLR 24/16 A3014 RMK AO2
cycle: 19

Station Type Date Time Source
KMVE TAF UTC NOAA

Error!

Example: see airport list